Time;durP1;ratioP1;P1;durP2;ratioP2;P2;SDS_P1;SDS_P2;PMS_P1;PMS_P2;Temp;Humidity;BMP_temperature;BMP_pressure;BME280_temperature;BME280_humidity;BME280_pressure;Samples;Min_cycle;Max_cycle;Signal;HPM_P1;HPM_P2
2022/09/09 00:00:27;;;;;;;13.98;9.48;;;15.10;99.90;;;;;;4936955;28;20122;-88
2022/09/09 00:03:21;;;;;;;16.60;9.52;;;14.40;99.90;;;;;;4970040;28;20479;-88
2022/09/09 00:06:35;;;;;;;12.80;9.73;;;14.40;99.90;;;;;;4965597;28;20099;-88
2022/09/09 00:09:18;;;;;;;14.35;9.77;;;14.40;99.90;;;;;;4939744;28;20467;-88
2022/09/09 00:12:06;;;;;;;14.90;9.00;;;14.30;99.90;;;;;;4968914;28;20054;-86
2022/09/09 00:15:01;;;;;;;13.68;8.38;;;14.30;99.90;;;;;;4969266;28;20054;-88
2022/09/09 00:17:48;;;;;;;14.20;8.98;;;14.30;99.90;;;;;;4950046;28;20047;-88
2022/09/09 00:20:32;;;;;;;13.57;9.02;;;14.30;99.90;;;;;;4930827;28;20062;-88
2022/09/09 00:23:28;;;;;;;15.68;8.85;;;15.00;99.90;;;;;;4969023;28;20058;-88
2022/09/09 00:26:10;;;;;;;15.57;9.70;;;14.20;99.90;;;;;;4966587;28;20059;-88
2022/09/09 00:28:56;;;;;;;14.60;8.77;;;14.20;99.90;;;;;;4951700;28;20110;-88
2022/09/09 00:31:30;;;;;;;12.98;8.27;;;14.20;99.90;;;;;;4917060;28;20106;-88
2022/09/09 00:34:12;;;;;;;14.43;9.32;;;14.20;99.90;;;;;;4969043;28;20053;-88
2022/09/09 00:36:39;;;;;;;15.65;9.10;;;14.10;99.90;;;;;;4965551;28;20047;-88
2022/09/09 00:39:05;;;;;;;13.52;9.32;;;14.10;99.90;;;;;;4951353;28;20047;-89
2022/09/09 00:41:37;;;;;;;17.13;9.45;;;14.10;99.90;;;;;;4964456;28;20035;-88
2022/09/09 00:44:24;;;;;;;14.05;9.93;;;14.10;99.90;;;;;;4950584;28;20129;-88
2022/09/09 00:47:06;;;;;;;14.60;8.98;;;14.10;99.90;;;;;;4966032;28;20479;-88
2022/09/09 00:49:54;;;;;;;16.13;9.15;;;14.10;99.90;;;;;;4928992;29;20547;-88
2022/09/09 00:52:45;;;;;;;14.32;8.98;;;14.10;99.90;;;;;;4940120;28;20109;-89
2022/09/09 00:55:47;;;;;;;11.90;9.07;;;14.00;99.90;;;;;;4967860;28;20058;-87
2022/09/09 00:58:13;;;;;;;14.20;8.63;;;14.00;99.90;;;;;;4950088;28;20039;-87
2022/09/09 01:01:12;;;;;;;16.55;10.15;;;14.00;99.90;;;;;;4950237;28;20098;-87
2022/09/09 01:03:55;;;;;;;11.27;8.20;;;13.90;99.90;;;;;;4929905;28;20070;-88
2022/09/09 01:06:31;;;;;;;15.02;8.68;;;13.90;99.90;;;;;;4968512;28;20054;-87
2022/09/09 01:09:36;;;;;;;15.75;9.13;;;13.90;99.90;;;;;;4951910;28;20053;-88
2022/09/09 01:12:07;;;;;;;9.57;6.97;;;13.90;99.90;;;;;;4953046;28;20042;-87
2022/09/09 01:14:36;;;;;;;13.43;8.57;;;13.80;99.90;;;;;;4951822;28;20042;-88
2022/09/09 01:17:15;;;;;;;14.52;9.70;;;13.80;99.90;;;;;;4968065;28;20047;-88
2022/09/09 01:19:54;;;;;;;15.93;9.25;;;13.80;99.90;;;;;;4949778;28;20085;-88
2022/09/09 01:22:36;;;;;;;15.70;8.73;;;13.80;99.90;;;;;;4963843;28;20046;-88
2022/09/09 01:25:25;;;;;;;12.77;8.65;;;13.80;99.90;;;;;;4946737;28;20093;-88
2022/09/09 01:27:55;;;;;;;11.90;8.27;;;13.80;99.90;;;;;;4968476;28;20051;-88
2022/09/09 01:30:22;;;;;;;12.82;9.05;;;13.80;99.90;;;;;;4967527;28;20609;-88
2022/09/09 01:32:50;;;;;;;13.55;7.60;;;13.80;99.90;;;;;;4954377;28;20457;-88
2022/09/09 01:35:30;;;;;;;15.35;8.98;;;13.70;99.90;;;;;;4967335;28;20078;-88
2022/09/09 01:37:56;;;;;;;14.57;9.70;;;13.70;99.90;;;;;;4969301;28;20106;-88
2022/09/09 01:40:21;;;;;;;16.30;8.70;;;13.70;99.90;;;;;;4967089;28;20047;-88
2022/09/09 01:42:47;;;;;;;15.20;9.70;;;13.70;99.90;;;;;;4968649;28;20549;-87
2022/09/09 01:45:13;;;;;;;16.38;8.82;;;13.70;99.90;;;;;;4963467;28;20042;-88
2022/09/09 01:47:39;;;;;;;16.70;9.25;;;13.70;99.90;;;;;;4967684;28;20047;-88
2022/09/09 01:50:06;;;;;;;12.65;8.20;;;13.70;99.90;;;;;;4966543;28;20046;-88
2022/09/09 01:52:35;;;;;;;12.15;8.52;;;13.70;99.90;;;;;;4967798;28;20050;-88
2022/09/09 01:55:00;;;;;;;14.30;8.93;;;13.90;99.90;;;;;;4956900;28;20142;-88
2022/09/09 01:57:44;;;;;;;14.95;8.73;;;13.70;99.90;;;;;;4947680;28;20055;-88
2022/09/09 02:00:14;;;;;;;13.10;8.52;;;13.70;99.90;;;;;;4956284;28;20061;-88
2022/09/09 02:02:54;;;;;;;16.00;8.48;;;13.70;99.90;;;;;;4953759;28;20058;-87
2022/09/09 02:05:43;;;;;;;12.60;8.52;;;13.90;99.90;;;;;;4970582;28;20047;-87
2022/09/09 02:08:22;;;;;;;13.98;8.65;;;13.70;99.90;;;;;;4971791;28;20042;-87
2022/09/09 02:10:58;;;;;;;12.77;7.85;;;13.70;99.90;;;;;;4945754;28;20444;-87
2022/09/09 02:13:25;;;;;;;16.25;8.40;;;13.70;99.90;;;;;;4954025;28;20055;-87
2022/09/09 02:16:02;;;;;;;14.00;9.02;;;13.70;99.90;;;;;;4971432;28;20047;-87
2022/09/09 02:18:34;;;;;;;10.52;8.68;;;13.70;99.90;;;;;;4970465;28;20049;-87
2022/09/09 02:21:02;;;;;;;12.38;7.40;;;13.70;99.90;;;;;;4971113;28;20102;-87
2022/09/09 02:23:29;;;;;;;17.40;8.75;;;13.70;99.90;;;;;;4970264;28;20043;-87
2022/09/09 02:25:57;;;;;;;13.23;8.52;;;13.80;99.90;;;;;;4970822;28;20039;-87
2022/09/09 02:28:26;;;;;;;14.90;9.30;;;13.90;99.90;;;;;;4971421;28;20043;-87
2022/09/09 02:30:54;;;;;;;12.73;8.52;;;13.80;99.90;;;;;;4970665;28;20085;-87
2022/09/09 02:33:26;;;;;;;15.13;8.80;;;13.80;99.90;;;;;;4953448;28;20054;-86
2022/09/09 02:35:53;;;;;;;13.85;8.45;;;13.80;99.90;;;;;;4970501;28;20491;-88
2022/09/09 02:38:21;;;;;;;13.93;7.95;;;13.90;99.90;;;;;;4970007;28;20483;-87
2022/09/09 02:40:48;;;;;;;12.98;7.78;;;13.90;99.90;;;;;;4971285;28;20609;-87
2022/09/09 02:43:16;;;;;;;15.02;9.23;;;13.90;99.90;;;;;;4971066;28;20486;-87
2022/09/09 02:46:03;;;;;;;15.57;7.95;;;13.90;99.90;;;;;;4952918;28;20433;-87
2022/09/09 02:48:47;;;;;;;14.82;8.15;;;14.00;99.90;;;;;;4968518;28;20771;-87
2022/09/09 02:51:23;;;;;;;14.60;8.38;;;14.00;99.90;;;;;;4969211;28;20054;-87
2022/09/09 02:54:26;;;;;;;11.43;7.70;;;14.10;99.90;;;;;;4967783;28;20086;-87
2022/09/09 02:56:56;;;;;;;16.08;7.82;;;14.10;99.90;;;;;;4965278;28;20715;-86
2022/09/09 02:59:24;;;;;;;14.93;7.93;;;14.10;99.90;;;;;;4953309;28;20605;-87
2022/09/09 03:01:50;;;;;;;10.40;6.65;;;14.20;99.90;;;;;;4951080;28;20050;-87
2022/09/09 03:04:16;;;;;;;10.65;7.03;;;14.20;99.90;;;;;;4970613;28;20039;-87
2022/09/09 03:06:42;;;;;;;13.95;7.13;;;14.20;99.90;;;;;;4969807;28;20047;-87
2022/09/09 03:09:10;;;;;;;10.90;6.75;;;14.30;99.90;;;;;;4970148;28;20043;-87
2022/09/09 03:11:38;;;;;;;13.43;7.20;;;14.30;99.90;;;;;;4970904;28;20046;-87
2022/09/09 03:14:04;;;;;;;13.20;6.95;;;14.30;99.90;;;;;;4950887;28;20051;-87
2022/09/09 03:16:29;;;;;;;16.40;6.95;;;14.30;99.90;;;;;;4970053;28;21460;-87
2022/09/09 03:18:55;;;;;;;11.07;6.63;;;14.30;99.90;;;;;;4970080;28;20078;-87
2022/09/09 03:21:21;;;;;;;10.63;6.72;;;14.30;99.90;;;;;;4969820;28;20492;-87
2022/09/09 03:23:46;;;;;;;11.43;6.53;;;14.40;99.90;;;;;;4969779;28;20669;-87
2022/09/09 03:26:14;;;;;;;9.45;5.88;;;14.40;99.90;;;;;;4968965;28;20069;-87
2022/09/09 03:28:41;;;;;;;9.32;5.20;;;14.40;99.90;;;;;;4969096;28;20411;-87
2022/09/09 03:31:10;;;;;;;11.52;5.47;;;14.40;99.90;;;;;;4952303;28;20047;-87
2022/09/09 03:33:37;;;;;;;12.20;5.80;;;14.50;99.90;;;;;;4968897;28;20061;-87
2022/09/09 03:36:03;;;;;;;11.30;5.00;;;14.50;99.90;;;;;;4970461;28;20049;-87
2022/09/09 03:38:29;;;;;;;19.25;5.78;;;14.50;99.90;;;;;;4969778;28;20513;-87
2022/09/09 03:40:57;;;;;;;12.13;5.00;;;14.60;99.90;;;;;;4970647;28;20121;-87
2022/09/09 03:43:24;;;;;;;9.73;5.50;;;14.60;99.90;;;;;;4951525;28;20058;-87
2022/09/09 03:45:50;;;;;;;12.77;5.65;;;14.60;99.90;;;;;;4969831;28;20110;-87
2022/09/09 03:48:17;;;;;;;14.05;5.28;;;14.60;99.90;;;;;;4969798;28;20403;-87
2022/09/09 03:50:51;;;;;;;8.52;4.28;;;14.60;99.90;;;;;;4968574;28;20045;-87
2022/09/09 03:53:19;;;;;;;10.23;5.10;;;14.60;99.90;;;;;;4969699;28;20070;-88
2022/09/09 03:55:49;;;;;;;9.27;4.50;;;14.60;99.90;;;;;;4968803;28;20174;-87
2022/09/09 03:58:18;;;;;;;7.22;3.60;;;14.60;99.90;;;;;;4951563;28;20518;-87
2022/09/09 04:00:52;;;;;;;10.55;5.00;;;14.60;99.90;;;;;;4969112;28;20082;-87
2022/09/09 04:03:18;;;;;;;10.20;4.70;;;14.60;99.90;;;;;;4952823;28;20042;-87
2022/09/09 04:05:44;;;;;;;10.98;4.93;;;14.60;99.90;;;;;;4969509;28;20180;-87
2022/09/09 04:08:10;;;;;;;12.18;4.40;;;14.60;99.90;;;;;;4969315;28;20057;-87
2022/09/09 04:10:37;;;;;;;7.07;4.20;;;14.60;99.90;;;;;;4952715;28;20081;-87
2022/09/09 04:13:03;;;;;;;9.70;4.20;;;14.60;99.90;;;;;;4950677;28;20050;-87
2022/09/09 04:15:30;;;;;;;8.52;3.72;;;14.70;99.90;;;;;;4968662;28;20051;-86
2022/09/09 04:17:55;;;;;;;6.35;4.00;;;14.60;99.90;;;;;;4969622;28;20039;-87
2022/09/09 04:20:22;;;;;;;8.32;3.65;;;14.60;99.90;;;;;;4966321;28;20051;-87
2022/09/09 04:22:47;;;;;;;7.28;3.25;;;14.60;99.90;;;;;;4968567;28;20043;-87
2022/09/09 04:25:13;;;;;;;6.65;3.38;;;14.60;99.90;;;;;;4969808;28;20051;-87
2022/09/09 04:27:39;;;;;;;6.57;3.22;;;14.60;99.90;;;;;;4969976;28;20486;-87
2022/09/09 04:30:06;;;;;;;10.50;3.70;;;14.60;99.90;;;;;;4969481;28;20039;-87
2022/09/09 04:32:33;;;;;;;7.03;3.88;;;14.60;99.90;;;;;;4951389;28;20478;-88
2022/09/09 04:34:58;;;;;;;8.13;4.40;;;14.60;99.90;;;;;;4967946;28;20065;-87
2022/09/09 04:37:24;;;;;;;9.02;4.13;;;15.30;99.90;;;;;;4968150;28;20035;-88
2022/09/09 04:39:50;;;;;;;7.60;4.13;;;14.60;99.90;;;;;;4967487;28;20125;-87
2022/09/09 04:42:17;;;;;;;7.75;4.35;;;14.60;99.90;;;;;;4968590;28;20046;-87
2022/09/09 04:44:43;;;;;;;10.40;4.57;;;14.60;99.90;;;;;;4969586;28;20090;-88
2022/09/09 04:47:09;;;;;;;10.65;5.45;;;14.80;99.90;;;;;;4960207;28;20070;-87
2022/09/09 04:49:36;;;;;;;13.10;5.60;;;14.50;99.90;;;;;;4968375;28;20487;-87
2022/09/09 04:52:03;;;;;;;9.68;5.97;;;14.50;99.90;;;;;;4966756;28;20046;-87
2022/09/09 04:54:29;;;;;;;8.95;5.85;;;14.50;99.90;;;;;;4967962;28;20129;-87
2022/09/09 04:57:01;;;;;;;10.45;5.90;;;14.50;99.90;;;;;;4967955;28;20118;-87
2022/09/09 04:59:27;;;;;;;11.30;6.03;;;14.50;99.90;;;;;;4968171;28;20482;-87
2022/09/09 05:01:54;;;;;;;10.60;6.57;;;14.50;99.90;;;;;;4942276;28;20055;-89
2022/09/09 05:04:21;;;;;;;10.93;6.10;;;14.50;99.90;;;;;;4969974;28;20086;-89
2022/09/09 05:06:47;;;;;;;13.23;6.70;;;14.40;99.90;;;;;;4969554;28;20106;-88
2022/09/09 05:09:13;;;;;;;10.60;6.80;;;14.40;99.90;;;;;;4972032;28;20042;-89
2022/09/09 05:11:38;;;;;;;13.43;8.07;;;14.40;99.90;;;;;;4970129;28;20046;-89
2022/09/09 05:14:04;;;;;;;12.25;8.00;;;14.40;99.90;;;;;;4933238;28;20122;-87
2022/09/09 05:16:36;;;;;;;13.35;7.95;;;14.40;99.90;;;;;;4952966;28;20057;-90
2022/09/09 05:19:03;;;;;;;10.05;7.15;;;14.40;99.90;;;;;;4953413;28;20042;-89
2022/09/09 05:21:36;;;;;;;12.70;6.40;;;14.40;99.90;;;;;;4953379;28;20063;-91
2022/09/09 05:24:03;;;;;;;13.48;8.10;;;14.40;99.90;;;;;;4930294;29;20053;-88
2022/09/09 05:26:29;;;;;;;14.88;8.60;;;14.40;99.90;;;;;;4967659;28;20487;-90
2022/09/09 05:28:58;;;;;;;12.18;8.57;;;14.40;99.90;;;;;;4961591;28;20055;-89
2022/09/09 05:31:28;;;;;;;14.18;8.68;;;14.40;99.90;;;;;;4966844;28;20488;-90
2022/09/09 05:33:54;;;;;;;13.35;8.25;;;14.40;99.90;;;;;;4971743;28;20137;-90
2022/09/09 05:36:21;;;;;;;13.82;7.90;;;14.40;99.90;;;;;;4980973;28;20046;-90
2022/09/09 05:38:50;;;;;;;13.80;8.02;;;14.40;99.90;;;;;;4978928;28;20091;-90
2022/09/09 05:41:17;;;;;;;18.27;9.60;;;14.30;99.90;;;;;;4985203;28;20050;-88
2022/09/09 05:43:46;;;;;;;14.35;8.50;;;14.30;99.90;;;;;;4964998;28;20064;-88
2022/09/09 05:46:14;;;;;;;15.05;8.43;;;14.40;99.90;;;;;;4948995;28;20490;-87
2022/09/09 05:48:42;;;;;;;14.65;9.38;;;14.30;99.90;;;;;;4938744;28;20145;-87
2022/09/09 05:51:17;;;;;;;12.85;7.65;;;14.30;99.90;;;;;;4958141;28;20782;-89
2022/09/09 05:53:44;;;;;;;13.05;7.95;;;14.30;99.90;;;;;;4951095;28;20082;-88
2022/09/09 05:56:15;;;;;;;12.52;7.72;;;14.30;99.90;;;;;;4956859;28;20046;-88
2022/09/09 05:58:43;;;;;;;12.80;7.72;;;14.30;99.90;;;;;;4956560;29;20491;-88
2022/09/09 06:01:18;;;;;;;12.00;7.25;;;14.30;99.90;;;;;;4942877;28;20053;-88
2022/09/09 06:03:45;;;;;;;11.05;6.93;;;14.30;99.90;;;;;;4980004;28;20047;-88
2022/09/09 06:06:14;;;;;;;10.60;7.15;;;14.40;99.90;;;;;;4984278;28;20063;-88
2022/09/09 06:08:43;;;;;;;12.65;7.88;;;14.40;99.90;;;;;;4975065;28;20043;-88
2022/09/09 06:11:26;;;;;;;12.18;7.75;;;14.40;99.90;;;;;;4981524;28;20047;-88
2022/09/09 06:13:53;;;;;;;13.55;7.65;;;14.40;99.90;;;;;;4963852;28;20038;-89
2022/09/09 06:16:22;;;;;;;11.40;8.23;;;14.40;99.90;;;;;;4978624;28;20047;-88
2022/09/09 06:18:49;;;;;;;11.02;7.57;;;14.30;99.90;;;;;;4947270;28;20169;-88
2022/09/09 06:21:23;;;;;;;11.60;8.13;;;14.40;99.90;;;;;;4977944;28;20047;-88
2022/09/09 06:23:50;;;;;;;13.20;7.60;;;14.40;99.90;;;;;;4943690;28;20054;-87
2022/09/09 06:26:19;;;;;;;13.32;8.15;;;14.60;99.90;;;;;;4955669;28;20043;-88
2022/09/09 06:28:45;;;;;;;11.98;7.38;;;14.50;99.90;;;;;;4971709;28;20046;-88
2022/09/09 06:31:13;;;;;;;12.15;7.00;;;14.50;99.90;;;;;;4972205;28;20117;-88
2022/09/09 06:33:41;;;;;;;12.45;7.15;;;14.50;99.90;;;;;;4969935;28;20553;-88
2022/09/09 06:36:12;;;;;;;12.07;6.95;;;14.50;99.90;;;;;;4970448;28;20051;-86
2022/09/09 06:38:38;;;;;;;12.40;7.13;;;14.60;99.90;;;;;;4968338;28;20117;-87
2022/09/09 06:41:05;;;;;;;12.40;7.63;;;14.50;99.90;;;;;;4970669;28;20046;-87
2022/09/09 06:43:31;;;;;;;10.63;7.35;;;14.60;99.90;;;;;;4970600;28;20039;-87
2022/09/09 06:46:02;;;;;;;14.90;8.07;;;14.70;99.90;;;;;;4970831;28;20066;-87
2022/09/09 06:48:28;;;;;;;10.63;7.32;;;14.70;99.90;;;;;;4971535;28;20043;-87
2022/09/09 06:51:05;;;;;;;12.60;7.32;;;14.80;99.90;;;;;;4971913;28;20097;-87
2022/09/09 06:53:33;;;;;;;8.95;6.07;;;14.80;99.90;;;;;;4967921;28;20043;-87
2022/09/09 06:56:16;;;;;;;9.15;6.18;;;14.80;99.90;;;;;;4972269;28;20430;-91
2022/09/09 06:58:45;;;;;;;10.68;6.85;;;14.90;99.90;;;;;;4971059;28;20616;-87
2022/09/09 07:11:43;;;;;;;9.52;6.35;;;15.20;99.90;;;;;;5187621;23;20070;-83
2022/09/09 07:14:12;;;;;;;9.15;6.60;;;15.30;99.90;;;;;;4970569;28;20174;-83
2022/09/09 07:16:39;;;;;;;11.63;7.47;;;15.30;99.90;;;;;;4971355;28;20046;-83
2022/09/09 07:19:04;;;;;;;9.60;6.63;;;15.60;99.90;;;;;;4989860;28;20510;-83
2022/09/09 07:21:31;;;;;;;10.55;6.28;;;15.40;99.90;;;;;;4990164;28;20038;-83
2022/09/09 07:23:57;;;;;;;10.00;6.85;;;15.50;99.90;;;;;;4970693;28;20038;-83
2022/09/09 07:26:29;;;;;;;11.70;6.43;;;15.60;99.90;;;;;;4990313;28;20122;-83
2022/09/09 07:28:56;;;;;;;8.55;5.97;;;15.70;99.90;;;;;;4989030;28;20046;-83
2022/09/09 07:31:30;;;;;;;10.15;6.20;;;15.80;99.90;;;;;;4990302;28;20041;-83
2022/09/09 07:33:57;;;;;;;11.88;6.78;;;15.80;99.90;;;;;;4987575;28;20454;-83
2022/09/09 07:36:27;;;;;;;11.18;5.82;;;15.80;99.90;;;;;;4985788;28;20038;-83
2022/09/09 07:38:56;;;;;;;7.05;4.47;;;15.90;99.90;;;;;;4989356;28;20038;-83
2022/09/09 07:41:31;;;;;;;11.43;6.40;;;16.00;99.90;;;;;;4986847;28;20058;-83
2022/09/09 07:43:58;;;;;;;9.63;6.00;;;15.90;99.90;;;;;;4988019;28;20038;-83
2022/09/09 07:46:26;;;;;;;9.80;5.90;;;15.90;99.90;;;;;;4973021;28;20046;-83
2022/09/09 07:48:56;;;;;;;7.70;5.20;;;15.90;99.90;;;;;;4980453;28;20046;-83
2022/09/09 07:51:31;;;;;;;8.80;5.53;;;16.00;99.90;;;;;;4956815;28;20047;-83
2022/09/09 07:53:59;;;;;;;8.43;5.00;;;15.90;99.90;;;;;;4965885;28;20502;-83
2022/09/09 07:56:26;;;;;;;10.85;4.78;;;15.90;99.90;;;;;;4987759;28;20042;-83
2022/09/09 07:58:53;;;;;;;9.55;5.55;;;15.90;99.90;;;;;;4978797;28;20792;-81
2022/09/09 08:01:21;;;;;;;9.93;5.20;;;15.90;99.90;;;;;;4986668;28;20570;-83
2022/09/09 08:03:58;;;;;;;10.82;5.10;;;16.00;99.90;;;;;;4985403;28;20438;-82
2022/09/09 08:06:26;;;;;;;9.38;5.90;;;16.00;99.90;;;;;;4969819;28;20046;-83
2022/09/09 08:08:52;;;;;;;8.63;5.22;;;16.00;99.90;;;;;;4965713;28;20046;-83
2022/09/09 08:11:19;;;;;;;11.10;5.40;;;16.10;99.90;;;;;;4988306;28;20125;-83
2022/09/09 08:13:45;;;;;;;9.05;5.13;;;16.10;99.90;;;;;;4986988;28;20075;-83
2022/09/09 08:16:14;;;;;;;8.60;5.25;;;16.20;99.90;;;;;;4983060;28;20050;-82
2022/09/09 08:18:40;;;;;;;10.82;5.50;;;16.20;99.90;;;;;;4971250;28;20499;-82
2022/09/09 08:21:08;;;;;;;7.43;4.90;;;16.30;99.90;;;;;;4970814;28;20101;-83
2022/09/09 08:23:34;;;;;;;8.13;4.30;;;16.40;99.90;;;;;;4971894;28;20050;-82
2022/09/09 08:26:10;;;;;;;7.65;4.93;;;16.40;99.90;;;;;;4986659;28;20046;-83
2022/09/09 08:28:35;;;;;;;8.73;4.75;;;16.50;99.90;;;;;;4982128;28;20053;-83
2022/09/09 08:31:06;;;;;;;9.63;4.55;;;16.50;99.90;;;;;;4966619;28;20039;-82
2022/09/09 08:33:33;;;;;;;10.20;4.78;;;16.60;99.90;;;;;;4971206;28;20046;-82
2022/09/09 08:35:59;;;;;;;10.48;5.00;;;16.60;99.90;;;;;;4986241;28;20050;-82
2022/09/09 08:38:24;;;;;;;10.32;5.18;;;16.70;99.90;;;;;;4970494;28;20034;-82
2022/09/09 08:40:53;;;;;;;10.80;4.45;;;16.80;99.90;;;;;;4970616;28;20042;-82
2022/09/09 08:43:21;;;;;;;8.00;4.82;;;16.80;99.90;;;;;;4987264;28;20043;-82
2022/09/09 08:46:01;;;;;;;8.30;4.97;;;16.80;99.90;;;;;;4969934;28;20129;-82
2022/09/09 08:49:07;;;;;;;12.30;5.55;;;16.80;99.90;;;;;;4970013;28;20050;-82
2022/09/09 08:51:33;;;;;;;8.68;4.65;;;16.90;99.90;;;;;;4961334;28;20128;-82
2022/09/09 08:54:02;;;;;;;11.45;5.32;;;17.00;99.90;;;;;;4969973;28;20050;-82
2022/09/09 08:56:31;;;;;;;12.52;5.57;;;17.10;99.90;;;;;;4987023;28;20050;-82
2022/09/09 08:59:00;;;;;;;7.85;4.82;;;17.10;99.90;;;;;;4971040;28;20053;-82
2022/09/09 09:01:50;;;;;;;10.68;4.57;;;17.20;99.90;;;;;;4987441;28;20053;-82
2022/09/09 09:04:28;;;;;;;12.23;4.78;;;17.30;99.90;;;;;;4967612;28;20050;-82
2022/09/09 09:07:04;;;;;;;8.93;4.78;;;17.40;99.90;;;;;;4969476;28;20058;-81
2022/09/09 09:10:08;;;;;;;8.38;4.47;;;17.50;99.90;;;;;;4987576;28;20042;-82
2022/09/09 09:12:40;;;;;;;9.27;4.78;;;17.70;99.90;;;;;;4911498;29;20056;-82
2022/09/09 09:15:20;;;;;;;11.02;4.10;;;17.90;99.90;;;;;;4919999;29;20154;-82
2022/09/09 09:17:48;;;;;;;10.23;4.32;;;18.10;99.90;;;;;;4922660;29;20110;-82
2022/09/09 09:20:15;;;;;;;9.63;3.97;;;18.10;99.90;;;;;;4907392;29;20143;-82
2022/09/09 09:22:48;;;;;;;9.05;4.60;;;18.20;99.90;;;;;;4924752;29;20046;-81
2022/09/09 09:25:17;;;;;;;9.00;4.37;;;18.20;99.90;;;;;;4915047;29;20059;-82
2022/09/09 09:27:54;;;;;;;11.00;3.83;;;18.30;99.90;;;;;;4915850;29;20056;-81
2022/09/09 09:30:35;;;;;;;9.05;4.40;;;18.20;99.90;;;;;;4909493;29;20044;-81
2022/09/09 09:33:04;;;;;;;8.55;3.80;;;18.40;99.90;;;;;;4912332;29;20056;-81
2022/09/09 09:35:30;;;;;;;9.70;3.97;;;18.50;99.90;;;;;;4914976;29;20440;-81
2022/09/09 09:37:56;;;;;;;11.05;3.72;;;18.60;99.90;;;;;;4918912;29;20056;-81
2022/09/09 09:40:23;;;;;;;11.95;4.10;;;18.80;99.90;;;;;;4918093;29;20413;-81
2022/09/09 09:43:00;;;;;;;13.60;3.50;;;18.90;99.90;;;;;;4900312;29;20060;-83
2022/09/09 09:45:32;;;;;;;13.63;3.85;;;19.10;99.90;;;;;;4918085;28;20048;-82
2022/09/09 09:47:59;;;;;;;10.60;3.45;;;19.10;99.90;;;;;;4981181;28;20390;-82
2022/09/09 09:50:25;;;;;;;10.35;3.53;;;19.00;99.90;;;;;;4985185;28;20038;-82
2022/09/09 09:52:55;;;;;;;14.05;3.53;;;19.00;99.90;;;;;;4984059;28;20537;-82
2022/09/09 09:55:22;;;;;;;9.52;3.65;;;18.90;99.90;;;;;;4983330;28;20061;-82
2022/09/09 09:57:48;;;;;;;11.75;3.83;;;18.80;99.90;;;;;;4984110;28;20050;-82
2022/09/09 10:00:20;;;;;;;8.07;2.60;;;18.70;99.90;;;;;;4963003;28;20109;-82
2022/09/09 10:02:47;;;;;;;10.13;3.40;;;18.70;99.90;;;;;;4981517;28;20042;-82
2022/09/09 10:05:20;;;;;;;9.60;2.88;;;18.80;99.90;;;;;;4986748;28;20034;-82
2022/09/09 10:07:46;;;;;;;7.90;2.08;;;18.90;99.90;;;;;;4964421;28;20045;-82
2022/09/09 10:10:26;;;;;;;9.10;2.55;;;19.10;99.90;;;;;;4987343;28;20057;-82
2022/09/09 10:13:06;;;;;;;6.50;2.78;;;19.20;99.90;;;;;;4982497;28;20053;-82
2022/09/09 10:15:53;;;;;;;9.70;2.55;;;19.10;99.90;;;;;;4970672;28;20050;-82
2022/09/09 10:18:46;;;;;;;9.13;2.67;;;19.30;99.90;;;;;;4961111;28;20043;-82
2022/09/09 10:21:12;;;;;;;11.63;2.50;;;19.30;99.90;;;;;;4952952;28;20125;-82
2022/09/09 10:24:05;;;;;;;10.90;2.45;;;19.30;99.90;;;;;;4973928;28;20129;-82
2022/09/09 10:27:12;;;;;;;11.73;2.40;;;19.40;99.90;;;;;;4968632;28;20102;-82
2022/09/09 10:30:10;;;;;;;13.38;2.25;;;19.40;99.90;;;;;;4982160;28;20093;-83
2022/09/09 10:32:44;;;;;;;10.45;2.75;;;19.60;99.90;;;;;;4955935;28;20054;-82
2022/09/09 10:35:22;;;;;;;8.70;2.13;;;19.60;99.90;;;;;;4988388;28;20054;-82
2022/09/09 10:38:06;;;;;;;8.32;1.75;;;19.60;99.90;;;;;;4971535;28;20438;-82
2022/09/09 10:40:53;;;;;;;11.07;1.90;;;19.60;99.90;;;;;;4968250;28;20042;-82
2022/09/09 10:43:24;;;;;;;8.10;1.33;;;19.70;99.90;;;;;;4988263;28;20046;-82
2022/09/09 10:46:07;;;;;;;6.53;1.33;;;19.80;99.90;;;;;;4982324;28;20053;-82
2022/09/09 10:48:51;;;;;;;6.82;1.30;;;19.90;99.90;;;;;;4971687;28;20397;-82
2022/09/09 10:51:36;;;;;;;7.47;1.40;;;20.10;99.90;;;;;;4990196;28;20046;-82
2022/09/09 10:54:18;;;;;;;9.68;1.63;;;20.20;99.90;;;;;;4949573;28;20046;-82
2022/09/09 10:56:53;;;;;;;5.60;1.48;;;20.20;99.90;;;;;;4985786;28;20502;-81
2022/09/09 10:59:26;;;;;;;6.97;1.52;;;20.20;99.90;;;;;;4989448;28;20050;-80
2022/09/09 11:01:59;;;;;;;10.00;2.53;;;20.10;99.90;;;;;;4972783;28;20085;-80
2022/09/09 11:04:44;;;;;;;5.07;1.15;;;20.00;99.90;;;;;;4984244;28;20085;-81
2022/09/09 11:07:14;;;;;;;7.10;1.73;;;20.00;99.90;;;;;;4986313;28;20054;-81
2022/09/09 11:09:51;;;;;;;6.35;1.70;;;20.00;99.90;;;;;;4973335;28;20098;-83
2022/09/09 11:12:20;;;;;;;7.50;1.30;;;20.20;99.90;;;;;;4970880;28;20096;-82
2022/09/09 11:14:51;;;;;;;6.60;1.60;;;20.50;99.90;;;;;;4955327;28;20061;-79
2022/09/09 11:17:24;;;;;;;6.20;1.27;;;20.60;99.90;;;;;;4988053;28;20038;-79
2022/09/09 11:19:50;;;;;;;8.23;1.80;;;20.60;99.90;;;;;;4987542;28;20502;-79
2022/09/09 11:22:20;;;;;;;7.18;1.50;;;20.40;99.90;;;;;;4985018;28;20047;-78
2022/09/09 11:24:56;;;;;;;4.13;1.10;;;20.40;99.90;;;;;;4989909;28;20097;-79
2022/09/09 11:27:44;;;;;;;4.80;1.20;;;20.50;99.90;;;;;;4968779;28;20057;-79
2022/09/09 11:30:28;;;;;;;7.70;1.50;;;20.60;99.90;;;;;;4987225;28;20038;-79
2022/09/09 11:33:16;;;;;;;5.10;1.50;;;20.80;99.90;;;;;;4970780;28;20038;-79
2022/09/09 11:35:57;;;;;;;5.03;1.17;;;21.00;99.90;;;;;;4983509;28;20049;-79
2022/09/09 11:38:44;;;;;;;7.30;1.85;;;21.10;99.90;;;;;;4970260;28;20050;-79
2022/09/09 11:41:10;;;;;;;4.00;0.93;;;21.00;99.90;;;;;;4983373;28;20422;-79
2022/09/09 11:43:51;;;;;;;7.28;1.00;;;21.00;99.90;;;;;;4988260;28;20052;-79
2022/09/09 11:46:19;;;;;;;4.40;0.90;;;20.90;99.90;;;;;;4983162;28;20030;-79
2022/09/09 11:48:57;;;;;;;4.60;1.30;;;20.80;99.90;;;;;;4986969;28;20052;-79
2022/09/09 11:51:30;;;;;;;8.18;1.00;;;20.70;99.90;;;;;;4985525;28;20450;-78
2022/09/09 11:54:02;;;;;;;5.07;1.13;;;20.60;99.90;;;;;;4984862;28;20050;-79
2022/09/09 11:56:43;;;;;;;5.90;1.13;;;20.60;99.90;;;;;;4986468;28;20042;-78
2022/09/09 11:59:25;;;;;;;7.55;1.27;;;20.60;99.90;;;;;;4983358;28;20129;-78
2022/09/09 12:01:56;;;;;;;5.30;1.23;;;20.70;99.90;;;;;;4987294;28;20050;-78
2022/09/09 12:04:24;;;;;;;8.23;1.23;;;20.80;99.90;;;;;;4987158;28;20394;-78
2022/09/09 12:07:08;;;;;;;6.22;1.13;;;20.90;99.90;;;;;;4985039;28;20506;-78
2022/09/09 12:09:48;;;;;;;5.50;1.58;;;21.00;99.90;;;;;;4965963;28;20140;-78
2022/09/09 12:12:14;;;;;;;7.45;1.50;;;20.90;99.90;;;;;;4967739;28;20046;-78
2022/09/09 12:14:43;;;;;;;6.93;1.42;;;20.80;99.90;;;;;;4985731;28;20052;-78
2022/09/09 12:17:14;;;;;;;8.45;1.20;;;20.70;99.90;;;;;;4983800;28;20039;-78
2022/09/09 12:19:39;;;;;;;6.88;1.40;;;20.70;99.90;;;;;;4983244;28;20042;-77
2022/09/09 12:22:28;;;;;;;7.50;1.45;;;20.70;99.90;;;;;;4969153;28;20057;-78
2022/09/09 12:25:00;;;;;;;7.20;1.20;;;20.90;99.90;;;;;;4982552;28;20042;-77
2022/09/09 12:27:36;;;;;;;10.95;1.27;;;21.10;99.90;;;;;;4985728;28;20114;-78
2022/09/09 12:30:15;;;;;;;7.93;1.35;;;21.30;99.90;;;;;;4988012;28;20125;-78
2022/09/09 12:32:41;;;;;;;7.78;1.27;;;21.10;99.90;;;;;;4986148;28;20113;-78
2022/09/09 12:35:11;;;;;;;6.57;1.15;;;21.20;99.90;;;;;;4988252;28;20133;-78
2022/09/09 12:37:42;;;;;;;6.25;1.27;;;21.20;99.90;;;;;;4969488;28;20046;-78
2022/09/09 12:40:26;;;;;;;5.18;1.00;;;21.30;99.90;;;;;;4987611;28;20529;-77
2022/09/09 12:42:52;;;;;;;7.20;1.15;;;21.40;99.90;;;;;;4971626;28;20335;-77
2022/09/09 12:45:31;;;;;;;5.55;1.15;;;21.50;99.90;;;;;;4989433;28;20399;-78
2022/09/09 12:48:02;;;;;;;8.95;1.40;;;21.50;99.90;;;;;;4978866;28;20046;-79
2022/09/09 12:50:34;;;;;;;5.80;1.05;;;21.50;99.90;;;;;;4971232;28;20501;-78
2022/09/09 12:53:07;;;;;;;6.63;1.30;;;21.50;99.90;;;;;;4986039;28;20053;-79
2022/09/09 12:55:36;;;;;;;6.75;1.20;;;21.40;99.90;;;;;;4985832;28;20034;-79
2022/09/09 12:58:06;;;;;;;8.95;1.48;;;21.50;99.90;;;;;;4984317;28;20045;-79
2022/09/09 13:00:33;;;;;;;5.45;0.98;;;21.40;99.90;;;;;;4987763;28;20042;-79
2022/09/09 13:03:02;;;;;;;7.47;1.10;;;21.50;99.90;;;;;;4969859;28;20060;-79
2022/09/09 13:05:36;;;;;;;5.88;1.00;;;21.50;99.90;;;;;;4985140;28;20122;-79
2022/09/09 13:08:09;;;;;;;6.18;1.10;;;21.50;99.90;;;;;;4970337;28;20051;-78
2022/09/09 13:10:46;;;;;;;5.82;0.95;;;21.70;99.90;;;;;;4970103;28;20082;-78
2022/09/09 13:13:22;;;;;;;8.32;1.33;;;21.80;99.90;;;;;;4969982;28;20382;-78
2022/09/09 13:15:54;;;;;;;8.00;1.40;;;21.70;99.90;;;;;;4986241;28;20382;-78
2022/09/09 13:18:33;;;;;;;5.55;1.23;;;21.50;99.90;;;;;;4988047;28;20038;-78